Saint Louis, MO

1:16 PM CDT on August 30, 2014 (GMT -0500)
Saint Louis Downtown | Change Station
CLOSE
Current Station
Airport
Location: Cahokia,
Elevation: 410 ft
Nearby Weather Stations

Elev 410 ft 38.57 °N, 90.16 °W | Updated 23 minutes ago

Mostly Cloudy
Mostly Cloudy
80 °F
Feels Like 84 °F
N
12
Wind Variable Wind from SSW

Today
High -- | Low -- °F
--% Chance of Precip.
Yesterday
High -- | Low -- °F
Precip. -- in
6:28 AM 7:33 PM
Waxing Crescent, 23% visible
Pressure 29.95 in
Visibility 10.0 miles
Clouds Scattered Clouds 1800 ft
Mostly Cloudy 9000 ft
Heat Index 84 °F
Dew Point 73 °F
Humidity 79%
Rainfall 0.01 in
Snow Depth Not available.
UV 5 out of 12
Pollen 8.30 out of 12
Ozone Good
PM2.5 Good
Flu Activity Not available.
METAR KCPS 301753Z 20010KT 10SM SCT018 BKN090 27/23 A2996 RMK AO2 RAE1657B31E49 SLP140 P0001 60001 T02670228 10272 20222 58005

More Conditions Fewer Conditions

Pressure 29.95 in
Visibility 10.0 miles
Clouds Scattered Clouds 1800 ft
Mostly Cloudy 9000 ft
Heat Index 84 °F
Dew Point 73 °F
Humidity 79%
Rainfall 0.01 in
Snow Depth Not available.
UV 5 out of 12
Pollen 8.30 out of 12
Ozone Good
PM2.5 Good
Flu Activity Not available.
METAR KCPS 301753Z 20010KT 10SM SCT018 BKN090 27/23 A2996 RMK AO2 RAE1657B31E49 SLP140 P0001 60001 T02670228 10272 20222 58005

More Conditions Fewer Conditions

10-Day Weather Forecast

Almanac

Astronomy

Aug. 30, 2014 Rise Set
Actual Time 6:28 AM CDT 7:33 PM CDT
Civil Twilight 6:00 AM CDT 8:01 PM CDT
Nautical Twilight 5:28 AM CDT 8:33 PM CDT
Astronomical Twilight 4:54 AM CDT 9:07 PM CDT
Moon 11:12 AM CDT 10:11 PM CDT
Length of Visible Light 14h 00m
Length of Day
13h 05m
Tomorrow will be 2m 23s shorter.
Waxing Crescent, 23% of the Moon is Illuminated
Today
Waxing Crescent
Sep 2
First Quarter
Sep 8
Full
Sep 15
Last Quarter
Sep 24
New

Today's Extremes

State Highs State Lows

Community

WunderPhotos

Upload Photos

1,748,583 photos uploaded!

WunderBlogs® & News

Nearby

Air Quality

  Air Quality AQ Index Pollutant
Yesterday Moderate
PM2.5
Yesterday Moderate
OZONE
Current Good
PM2.5
Current Good
OZONE
Saturday Moderate
OZONE
Saturday Good
PM2.5

Snow Depth

Station Depth Elevation
No new snow has been reported.

Earthquake Activity

City Distance Mag. Time & Date
No recent earthquake activity has been reported nearby.
Minimum magnitude displayed is 2.5.

Coastal Water Temperatures

Place Temperature
No Stations Reporting

Nearby Weather Stations